sensor_id;sensor_type;location;lat;lon;timestamp;pressure;altitude;pressure_sealevel;temperature;humidity
25869;BME280;13688;53.154;18.136;2024-01-11T00:02:05;101947.34;;;-4.79;100.00
25869;BME280;13688;53.154;18.136;2024-01-11T00:07:28;101957.84;;;-4.76;100.00
25869;BME280;13688;53.154;18.136;2024-01-11T00:12:52;101947.39;;;-4.72;100.00
25869;BME280;13688;53.154;18.136;2024-01-11T00:18:14;101919.41;;;-4.68;100.00
25869;BME280;13688;53.154;18.136;2024-01-11T00:23:37;101939.55;;;-4.58;100.00
25869;BME280;13688;53.154;18.136;2024-01-11T00:28:59;101927.34;;;-4.48;100.00
25869;BME280;13688;53.154;18.136;2024-01-11T00:34:22;101916.00;;;-4.38;100.00
25869;BME280;13688;53.154;18.136;2024-01-11T00:39:46;101893.27;;;-4.28;100.00
25869;BME280;13688;53.154;18.136;2024-01-11T00:45:08;101876.66;;;-4.24;100.00
25869;BME280;13688;53.154;18.136;2024-01-11T00:50:31;101870.52;;;-4.19;100.00
25869;BME280;13688;53.154;18.136;2024-01-11T00:55:56;101874.92;;;-4.13;100.00
25869;BME280;13688;53.154;18.136;2024-01-11T01:01:18;101875.78;;;-4.08;100.00
25869;BME280;13688;53.154;18.136;2024-01-11T01:06:41;101860.92;;;-4.03;100.00
25869;BME280;13688;53.154;18.136;2024-01-11T01:12:05;101893.31;;;-3.99;100.00
25869;BME280;13688;53.154;18.136;2024-01-11T01:17:30;101875.81;;;-3.94;100.00
25869;BME280;13688;53.154;18.136;2024-01-11T01:22:53;101878.44;;;-3.93;100.00
25869;BME280;13688;53.154;18.136;2024-01-11T01:28:16;101895.94;;;-3.89;100.00
25869;BME280;13688;53.154;18.136;2024-01-11T01:33:39;101884.57;;;-3.85;100.00
25869;BME280;13688;53.154;18.136;2024-01-11T01:39:03;101883.68;;;-3.81;100.00
25869;BME280;13688;53.154;18.136;2024-01-11T01:44:27;101889.81;;;-3.80;100.00
25869;BME280;13688;53.154;18.136;2024-01-11T01:49:53;101897.68;;;-3.77;100.00
25869;BME280;13688;53.154;18.136;2024-01-11T01:55:18;101902.09;;;-3.76;100.00
25869;BME280;13688;53.154;18.136;2024-01-11T02:00:43;101915.23;;;-3.76;100.00
25869;BME280;13688;53.154;18.136;2024-01-11T02:12:13;101909.94;;;-3.67;100.00
25869;BME280;13688;53.154;18.136;2024-01-11T02:17:36;101907.33;;;-3.62;100.00
25869;BME280;13688;53.154;18.136;2024-01-11T02:23:05;101902.94;;;-3.59;100.00
25869;BME280;13688;53.154;18.136;2024-01-11T02:28:28;101902.06;;;-3.53;100.00
25869;BME280;13688;53.154;18.136;2024-01-11T02:33:51;101888.02;;;-3.48;100.00
25869;BME280;13688;53.154;18.136;2024-01-11T02:39:16;101875.75;;;-3.41;100.00
25869;BME280;13688;53.154;18.136;2024-01-11T02:44:39;101868.72;;;-3.31;100.00
25869;BME280;13688;53.154;18.136;2024-01-11T02:50:02;101860.80;;;-3.22;100.00
25869;BME280;13688;53.154;18.136;2024-01-11T02:55:25;101853.77;;;-3.14;100.00
25869;BME280;13688;53.154;18.136;2024-01-11T03:00:47;101838.84;;;-3.06;100.00
25869;BME280;13688;53.154;18.136;2024-01-11T03:06:10;101838.80;;;-2.97;100.00
25869;BME280;13688;53.154;18.136;2024-01-11T03:11:33;101824.73;;;-2.88;100.00
25869;BME280;13688;53.154;18.136;2024-01-11T03:16:56;101801.87;;;-2.81;100.00
25869;BME280;13688;53.154;18.136;2024-01-11T03:22:19;101788.66;;;-2.69;100.00
25869;BME280;13688;53.154;18.136;2024-01-11T03:27:42;101781.59;;;-2.64;100.00
25869;BME280;13688;53.154;18.136;2024-01-11T03:33:05;101769.30;;;-2.61;100.00
25869;BME280;13688;53.154;18.136;2024-01-11T03:38:28;101788.55;;;-2.54;100.00
25869;BME280;13688;53.154;18.136;2024-01-11T03:43:51;101793.81;;;-2.51;100.00
25869;BME280;13688;53.154;18.136;2024-01-11T03:49:14;101779.67;;;-2.42;100.00
25869;BME280;13688;53.154;18.136;2024-01-11T03:54:37;101777.86;;;-2.34;100.00
25869;BME280;13688;53.154;18.136;2024-01-11T04:00:00;101762.89;;;-2.27;100.00
25869;BME280;13688;53.154;18.136;2024-01-11T04:05:23;101740.91;;;-2.22;100.00
25869;BME280;13688;53.154;18.136;2024-01-11T04:10:46;101723.32;;;-2.20;100.00
25869;BME280;13688;53.154;18.136;2024-01-11T04:16:12;101698.70;;;-2.17;100.00
25869;BME280;13688;53.154;18.136;2024-01-11T04:21:34;101681.09;;;-2.12;100.00
25869;BME280;13688;53.154;18.136;2024-01-11T04:26:57;101698.61;;;-2.08;100.00
25869;BME280;13688;53.154;18.136;2024-01-11T04:32:19;101712.66;;;-2.08;100.00
25869;BME280;13688;53.154;18.136;2024-01-11T04:37:42;101694.16;;;-2.02;100.00
25869;BME280;13688;53.154;18.136;2024-01-11T04:43:04;101674.75;;;-1.96;100.00
25869;BME280;13688;53.154;18.136;2024-01-11T04:48:27;101687.87;;;-1.90;100.00
25869;BME280;13688;53.154;18.136;2024-01-11T04:53:50;101693.06;;;-1.84;100.00
25869;BME280;13688;53.154;18.136;2024-01-11T04:59:13;101689.47;;;-1.77;100.00
25869;BME280;13688;53.154;18.136;2024-01-11T05:04:35;101690.30;;;-1.71;100.00
25869;BME280;13688;53.154;18.136;2024-01-11T05:09:58;101694.66;;;-1.69;100.00
25869;BME280;13688;53.154;18.136;2024-01-11T05:15:21;101682.29;;;-1.62;100.00
25869;BME280;13688;53.154;18.136;2024-01-11T05:20:44;101683.14;;;-1.60;100.00
25869;BME280;13688;53.154;18.136;2024-01-11T05:26:07;101672.52;;;-1.54;100.00
25869;BME280;13688;53.154;18.136;2024-01-11T05:31:31;101676.88;;;-1.52;100.00
25869;BME280;13688;53.154;18.136;2024-01-11T05:36:54;101691.78;;;-1.49;100.00
25869;BME280;13688;53.154;18.136;2024-01-11T05:42:17;101690.84;;;-1.43;100.00
25869;BME280;13688;53.154;18.136;2024-01-11T05:47:40;101672.36;;;-1.42;100.00
25869;BME280;13688;53.154;18.136;2024-01-11T05:53:03;101674.89;;;-1.36;100.00
25869;BME280;13688;53.154;18.136;2024-01-11T05:58:27;101666.93;;;-1.31;100.00
25869;BME280;13688;53.154;18.136;2024-01-11T06:03:49;101649.25;;;-1.26;100.00
25869;BME280;13688;53.154;18.136;2024-01-11T06:09:12;101643.11;;;-1.27;100.00
25869;BME280;13688;53.154;18.136;2024-01-11T06:14:35;101642.23;;;-1.27;100.00
25869;BME280;13688;53.154;18.136;2024-01-11T06:19:57;101634.30;;;-1.26;100.00
25869;BME280;13688;53.154;18.136;2024-01-11T06:25:21;101629.91;;;-1.27;100.00
25869;BME280;13688;53.154;18.136;2024-01-11T06:30:44;101638.73;;;-1.28;100.00
25869;BME280;13688;53.154;18.136;2024-01-11T06:36:07;101647.48;;;-1.26;100.00
25869;BME280;13688;53.154;18.136;2024-01-11T06:41:29;101654.51;;;-1.23;100.00
25869;BME280;13688;53.154;18.136;2024-01-11T06:46:53;101636.05;;;-1.23;100.00
25869;BME280;13688;53.154;18.136;2024-01-11T06:52:16;101629.81;;;-1.19;100.00
25869;BME280;13688;53.154;18.136;2024-01-11T06:57:39;101619.20;;;-1.16;100.00
25869;BME280;13688;53.154;18.136;2024-01-11T07:03:04;101616.56;;;-1.14;100.00
25869;BME280;13688;53.154;18.136;2024-01-11T07:08:28;101640.31;;;-1.16;100.00
25869;BME280;13688;53.154;18.136;2024-01-11T07:13:51;101634.17;;;-1.15;100.00
25869;BME280;13688;53.154;18.136;2024-01-11T07:19:15;101626.22;;;-1.13;100.00
25869;BME280;13688;53.154;18.136;2024-01-11T07:24:37;101616.48;;;-1.10;100.00
25869;BME280;13688;53.154;18.136;2024-01-11T07:30:00;101614.69;;;-1.08;100.00
25869;BME280;13688;53.154;18.136;2024-01-11T07:35:23;101597.02;;;-1.03;100.00
25869;BME280;13688;53.154;18.136;2024-01-11T07:40:46;101579.39;;;-1.01;100.00
25869;BME280;13688;53.154;18.136;2024-01-11T07:46:09;101582.00;;;-0.99;100.00
25869;BME280;13688;53.154;18.136;2024-01-11T07:51:33;101602.19;;;-0.95;100.00
25869;BME280;13688;53.154;18.136;2024-01-11T07:56:56;101617.91;;;-0.89;100.00
25869;BME280;13688;53.154;18.136;2024-01-11T08:02:18;101606.35;;;-0.82;100.00
25869;BME280;13688;53.154;18.136;2024-01-11T08:07:41;101617.66;;;-0.74;100.00
25869;BME280;13688;53.154;18.136;2024-01-11T08:13:04;101606.95;;;-0.65;100.00
25869;BME280;13688;53.154;18.136;2024-01-11T08:18:27;101603.34;;;-0.61;100.00
25869;BME280;13688;53.154;18.136;2024-01-11T08:23:49;101610.27;;;-0.53;100.00
25869;BME280;13688;53.154;18.136;2024-01-11T08:29:16;101616.32;;;-0.48;100.00
25869;BME280;13688;53.154;18.136;2024-01-11T08:34:37;101594.25;;;-0.44;100.00
25869;BME280;13688;53.154;18.136;2024-01-11T08:40:00;101592.41;;;-0.41;100.00
25869;BME280;13688;53.154;18.136;2024-01-11T08:45:24;101613.48;;;-0.36;100.00
25869;BME280;13688;53.154;18.136;2024-01-11T08:50:46;101608.09;;;-0.32;100.00
25869;BME280;13688;53.154;18.136;2024-01-11T08:56:10;101623.02;;;-0.27;100.00
25869;BME280;13688;53.154;18.136;2024-01-11T09:01:34;101617.69;;;-0.26;100.00
25869;BME280;13688;53.154;18.136;2024-01-11T09:06:59;101629.09;;;-0.24;100.00
25869;BME280;13688;53.154;18.136;2024-01-11T09:12:22;101636.99;;;-0.22;100.00
25869;BME280;13688;53.154;18.136;2024-01-11T09:17:44;101645.76;;;-0.19;100.00
25869;BME280;13688;53.154;18.136;2024-01-11T09:23:07;101645.69;;;-0.16;100.00
25869;BME280;13688;53.154;18.136;2024-01-11T09:28:30;101630.59;;;-0.09;100.00
25869;BME280;13688;53.154;18.136;2024-01-11T09:33:53;101621.69;;;-0.05;100.00
25869;BME280;13688;53.154;18.136;2024-01-11T09:39:15;101629.55;;;-0.02;100.00
25869;BME280;13688;53.154;18.136;2024-01-11T09:44:39;101619.84;;;-0.02;100.00
25869;BME280;13688;53.154;18.136;2024-01-11T09:50:05;101627.67;;;0.05;100.00
25869;BME280;13688;53.154;18.136;2024-01-11T09:55:28;101624.91;;;0.11;100.00
25869;BME280;13688;53.154;18.136;2024-01-11T10:00:55;101614.19;;;0.17;100.00
25869;BME280;13688;53.154;18.136;2024-01-11T10:06:18;101615.02;;;0.20;100.00
25869;BME280;13688;53.154;18.136;2024-01-11T10:11:41;101601.76;;;0.22;100.00
25869;BME280;13688;53.154;18.136;2024-01-11T10:17:05;101606.97;;;0.25;100.00
25869;BME280;13688;53.154;18.136;2024-01-11T10:22:30;101610.41;;;0.28;100.00
25869;BME280;13688;53.154;18.136;2024-01-11T10:27:52;101598.84;;;0.34;100.00
25869;BME280;13688;53.154;18.136;2024-01-11T10:33:15;101598.80;;;0.36;100.00
25869;BME280;13688;53.154;18.136;2024-01-11T10:38:40;101590.12;;;0.31;100.00
25869;BME280;13688;53.154;18.136;2024-01-11T10:44:03;101583.02;;;0.33;100.00
25869;BME280;13688;53.154;18.136;2024-01-11T10:49:49;101586.25;;;0.45;100.00
25869;BME280;13688;53.154;18.136;2024-01-11T10:55:14;101602.32;;;0.36;100.00
25869;BME280;13688;53.154;18.136;2024-01-11T11:00:41;101589.92;;;0.38;100.00
25869;BME280;13688;53.154;18.136;2024-01-11T11:06:06;101593.44;;;0.40;100.00
25869;BME280;13688;53.154;18.136;2024-01-11T11:11:32;101598.65;;;0.43;100.00
25869;BME280;13688;53.154;18.136;2024-01-11T11:16:57;101576.58;;;0.44;100.00
25869;BME280;13688;53.154;18.136;2024-01-11T11:22:20;101547.39;;;0.47;100.00
25869;BME280;13688;53.154;18.136;2024-01-11T11:27:47;101540.28;;;0.51;100.00
25869;BME280;13688;53.154;18.136;2024-01-11T11:33:25;101544.41;;;0.63;100.00
25869;BME280;13688;53.154;18.136;2024-01-11T11:38:50;101541.89;;;0.56;100.00
25869;BME280;13688;53.154;18.136;2024-01-11T11:44:17;101539.24;;;0.56;100.00
25869;BME280;13688;53.154;18.136;2024-01-11T11:49:56;101541.80;;;0.61;100.00
25869;BME280;13688;53.154;18.136;2024-01-11T11:55:35;101543.28;;;0.73;100.00
25869;BME280;13688;53.154;18.136;2024-01-11T12:01:02;101535.52;;;0.65;100.00
25869;BME280;13688;53.154;18.136;2024-01-11T12:06:28;101531.13;;;0.64;100.00
25869;BME280;13688;53.154;18.136;2024-01-11T12:11:54;101530.18;;;0.67;100.00
25869;BME280;13688;53.154;18.136;2024-01-11T12:17:19;101526.66;;;0.68;100.00
25869;BME280;13688;53.154;18.136;2024-01-11T12:22:43;101531.00;;;0.70;100.00
25869;BME280;13688;53.154;18.136;2024-01-11T12:28:08;101526.57;;;0.71;100.00
25869;BME280;13688;53.154;18.136;2024-01-11T12:33:33;101517.59;;;0.76;100.00
25869;BME280;13688;53.154;18.136;2024-01-11T12:38:59;101515.77;;;0.80;100.00
25869;BME280;13688;53.154;18.136;2024-01-11T12:44:24;101526.27;;;0.83;100.00
25869;BME280;13688;53.154;18.136;2024-01-11T12:49:50;101540.45;;;0.80;100.00
25869;BME280;13688;53.154;18.136;2024-01-11T12:55:21;101555.51;;;0.78;100.00
25869;BME280;13688;53.154;18.136;2024-01-11T13:00:46;101544.93;;;0.77;100.00
25869;BME280;13688;53.154;18.136;2024-01-11T13:06:11;101546.70;;;0.76;100.00
25869;BME280;13688;53.154;18.136;2024-01-11T13:11:36;101554.69;;;0.75;100.00
25869;BME280;13688;53.154;18.136;2024-01-11T13:17:01;101561.72;;;0.76;100.00
25869;BME280;13688;53.154;18.136;2024-01-11T13:22:25;101559.98;;;0.75;100.00
25869;BME280;13688;53.154;18.136;2024-01-11T13:27:49;101578.52;;;0.75;100.00
25869;BME280;13688;53.154;18.136;2024-01-11T13:33:14;101568.84;;;0.74;100.00
25869;BME280;13688;53.154;18.136;2024-01-11T13:38:38;101567.97;;;0.73;100.00
25869;BME280;13688;53.154;18.136;2024-01-11T13:44:03;101570.61;;;0.73;100.00
25869;BME280;13688;53.154;18.136;2024-01-11T13:49:29;101575.95;;;0.72;100.00
25869;BME280;13688;53.154;18.136;2024-01-11T13:54:53;101569.79;;;0.71;100.00
25869;BME280;13688;53.154;18.136;2024-01-11T14:00:19;101568.92;;;0.71;100.00
25869;BME280;13688;53.154;18.136;2024-01-11T14:05:44;101568.87;;;0.72;100.00
25869;BME280;13688;53.154;18.136;2024-01-11T14:11:11;101555.77;;;0.68;100.00
25869;BME280;13688;53.154;18.136;2024-01-11T14:16:33;101542.67;;;0.62;100.00
25869;BME280;13688;53.154;18.136;2024-01-11T14:22:01;101541.06;;;0.54;100.00
25869;BME280;13688;53.154;18.136;2024-01-11T14:27:23;101536.77;;;0.50;100.00
25869;BME280;13688;53.154;18.136;2024-01-11T14:32:46;101554.45;;;0.48;100.00
25869;BME280;13688;53.154;18.136;2024-01-11T14:38:10;101553.59;;;0.46;100.00
25869;BME280;13688;53.154;18.136;2024-01-11T14:43:34;101565.04;;;0.48;100.00
25869;BME280;13688;53.154;18.136;2024-01-11T14:48:56;101561.48;;;0.49;100.00
25869;BME280;13688;53.154;18.136;2024-01-11T14:54:19;101563.22;;;0.50;100.00
25869;BME280;13688;53.154;18.136;2024-01-11T14:59:42;101566.61;;;0.55;100.00
25869;BME280;13688;53.154;18.136;2024-01-11T15:05:05;101576.29;;;0.56;100.00
25869;BME280;13688;53.154;18.136;2024-01-11T15:10:29;101594.81;;;0.58;100.00
25869;BME280;13688;53.154;18.136;2024-01-11T15:15:53;101601.88;;;0.56;100.00
25869;BME280;13688;53.154;18.136;2024-01-11T15:21:18;101607.92;;;0.63;100.00
25869;BME280;13688;53.154;18.136;2024-01-11T15:26:43;101614.05;;;0.65;100.00
25869;BME280;13688;53.154;18.136;2024-01-11T15:32:07;101609.53;;;0.70;100.00
25869;BME280;13688;53.154;18.136;2024-01-11T15:37:31;101613.88;;;0.72;100.00
25869;BME280;13688;53.154;18.136;2024-01-11T15:42:55;101598.73;;;0.79;100.00
25869;BME280;13688;53.154;18.136;2024-01-11T15:48:18;101603.98;;;0.80;100.00
25869;BME280;13688;53.154;18.136;2024-01-11T15:53:43;101603.91;;;0.83;100.00
25869;BME280;13688;53.154;18.136;2024-01-11T15:59:08;101618.70;;;0.92;100.00
25869;BME280;13688;53.154;18.136;2024-01-11T16:04:37;101624.70;;;1.00;100.00
25869;BME280;13688;53.154;18.136;2024-01-11T16:09:59;101637.03;;;1.01;100.00
25869;BME280;13688;53.154;18.136;2024-01-11T16:15:22;101655.56;;;1.01;100.00
25869;BME280;13688;53.154;18.136;2024-01-11T16:20:47;101648.45;;;1.03;100.00
25869;BME280;13688;53.154;18.136;2024-01-11T16:26:11;101651.05;;;1.06;100.00
25869;BME280;13688;53.154;18.136;2024-01-11T16:31:34;101658.13;;;1.04;100.00
25869;BME280;13688;53.154;18.136;2024-01-11T16:36:56;101658.13;;;1.04;100.00
25869;BME280;13688;53.154;18.136;2024-01-11T16:42:19;101674.10;;;1.01;100.00
25869;BME280;13688;53.154;18.136;2024-01-11T16:47:43;101681.26;;;0.98;100.00
25869;BME280;13688;53.154;18.136;2024-01-11T16:53:07;101695.45;;;0.94;100.00
25869;BME280;13688;53.154;18.136;2024-01-11T16:58:32;101701.73;;;0.90;100.00
25869;BME280;13688;53.154;18.136;2024-01-11T17:03:56;101692.80;;;0.94;100.00
25869;BME280;13688;53.154;18.136;2024-01-11T17:09:21;101710.39;;;0.96;100.00
25869;BME280;13688;53.154;18.136;2024-01-11T17:14:45;101708.41;;;1.07;100.00
25869;BME280;13688;53.154;18.136;2024-01-11T17:20:10;101712.70;;;1.11;100.00
25869;BME280;13688;53.154;18.136;2024-01-11T17:25:34;101720.61;;;1.13;100.00
25869;BME280;13688;53.154;18.136;2024-01-11T17:30:58;101716.14;;;1.17;100.00
25869;BME280;13688;53.154;18.136;2024-01-11T17:36:23;101722.31;;;1.15;100.00
25869;BME280;13688;53.154;18.136;2024-01-11T17:41:47;101725.05;;;1.12;100.00
25869;BME280;13688;53.154;18.136;2024-01-11T17:47:10;101712.79;;;1.08;100.00
25869;BME280;13688;53.154;18.136;2024-01-11T17:52:35;101728.05;;;0.96;100.00
25869;BME280;13688;53.154;18.136;2024-01-11T17:58:01;101728.30;;;0.85;100.00
25869;BME280;13688;53.154;18.136;2024-01-11T18:03:25;101728.48;;;0.76;100.00
25869;BME280;13688;53.154;18.136;2024-01-11T18:08:48;101727.84;;;0.65;100.00
25869;BME280;13688;53.154;18.136;2024-01-11T18:14:13;101736.80;;;0.59;100.00
25869;BME280;13688;53.154;18.136;2024-01-11T18:19:50;101741.41;;;0.49;100.00
25869;BME280;13688;53.154;18.136;2024-01-11T18:25:42;101754.53;;;0.54;100.00
25869;BME280;13688;53.154;18.136;2024-01-11T18:31:06;101755.82;;;0.33;100.00
25869;BME280;13688;53.154;18.136;2024-01-11T18:36:29;101764.86;;;0.21;100.00
25869;BME280;13688;53.154;18.136;2024-01-11T18:41:59;101774.51;;;0.24;100.00
25869;BME280;13688;53.154;18.136;2024-01-11T18:47:24;101780.60;;;0.27;100.00
25869;BME280;13688;53.154;18.136;2024-01-11T18:52:47;101783.25;;;0.29;100.00
25869;BME280;13688;53.154;18.136;2024-01-11T18:58:12;101792.16;;;0.23;100.00
25869;BME280;13688;53.154;18.136;2024-01-11T19:03:36;101789.70;;;0.13;100.00
25869;BME280;13688;53.154;18.136;2024-01-11T19:09:01;101800.41;;;0.05;100.00
25869;BME280;13688;53.154;18.136;2024-01-11T19:14:24;101801.34;;;0.03;100.00
25869;BME280;13688;53.154;18.136;2024-01-11T19:19:48;101801.43;;;-0.04;100.00
25869;BME280;13688;53.154;18.136;2024-01-11T19:25:12;101815.64;;;-0.11;100.00
25869;BME280;13688;53.154;18.136;2024-01-11T19:30:36;101819.24;;;-0.15;100.00
25869;BME280;13688;53.154;18.136;2024-01-11T19:36:02;101832.48;;;-0.16;100.00
25869;BME280;13688;53.154;18.136;2024-01-11T19:41:28;101830.88;;;-0.26;100.00
25869;BME280;13688;53.154;18.136;2024-01-11T19:46:53;101845.95;;;-0.33;100.00
25869;BME280;13688;53.154;18.136;2024-01-11T19:52:17;101836.33;;;-0.39;100.00
25869;BME280;13688;53.154;18.136;2024-01-11T19:57:41;101867.16;;;-0.39;100.00
25869;BME280;13688;53.154;18.136;2024-01-11T20:03:07;101854.03;;;-0.44;100.00
25869;BME280;13688;53.154;18.136;2024-01-11T20:08:32;101862.16;;;-0.59;100.00
25869;BME280;13688;53.154;18.136;2024-01-11T20:13:56;101862.27;;;-0.65;100.00
25869;BME280;13688;53.154;18.136;2024-01-11T20:19:23;101864.15;;;-0.75;100.00
25869;BME280;13688;53.154;18.136;2024-01-11T20:24:47;101872.13;;;-0.81;100.00
25869;BME280;13688;53.154;18.136;2024-01-11T20:30:12;101893.32;;;-0.87;100.00
25869;BME280;13688;53.154;18.136;2024-01-11T20:35:36;101893.32;;;-0.87;100.00
25869;BME280;13688;53.154;18.136;2024-01-11T20:41:00;101903.05;;;-0.91;100.00
25869;BME280;13688;53.154;18.136;2024-01-11T20:46:26;101902.20;;;-0.93;100.00
25869;BME280;13688;53.154;18.136;2024-01-11T20:51:50;101915.53;;;-1.06;100.00
25869;BME280;13688;53.154;18.136;2024-01-11T20:57:15;101916.48;;;-1.10;100.00
25869;BME280;13688;53.154;18.136;2024-01-11T21:02:40;101918.17;;;-1.06;100.00
25869;BME280;13688;53.154;18.136;2024-01-11T21:08:06;101920.03;;;-1.16;100.00
25869;BME280;13688;53.154;18.136;2024-01-11T21:13:31;101916.62;;;-1.24;100.00
25869;BME280;13688;53.154;18.136;2024-01-11T21:18:57;101928.06;;;-1.27;100.00
25869;BME280;13688;53.154;18.136;2024-01-11T21:24:22;101931.57;;;-1.23;100.00
25869;BME280;13688;53.154;18.136;2024-01-11T21:29:47;101935.95;;;-1.22;100.00
25869;BME280;13688;53.154;18.136;2024-01-11T21:35:12;101943.98;;;-1.33;100.00
25869;BME280;13688;53.154;18.136;2024-01-11T21:40:37;101931.66;;;-1.32;100.00
25869;BME280;13688;53.154;18.136;2024-01-11T21:46:02;101930.72;;;-1.28;100.00
25869;BME280;13688;53.154;18.136;2024-01-11T21:51:27;101955.33;;;-1.26;100.00
25869;BME280;13688;53.154;18.136;2024-01-11T21:56:51;101949.27;;;-1.34;100.00
25869;BME280;13688;53.154;18.136;2024-01-11T22:02:16;101943.11;;;-1.36;100.00
25869;BME280;13688;53.154;18.136;2024-01-11T22:07:39;101957.17;;;-1.36;100.00
25869;BME280;13688;53.154;18.136;2024-01-11T22:13:04;101958.95;;;-1.38;100.00
25869;BME280;13688;53.154;18.136;2024-01-11T22:18:29;101954.55;;;-1.34;100.00
25869;BME280;13688;53.154;18.136;2024-01-11T22:23:54;101971.23;;;-1.32;100.00
25869;BME280;13688;53.154;18.136;2024-01-11T22:29:18;101980.91;;;-1.33;100.00
25869;BME280;13688;53.154;18.136;2024-01-11T22:34:44;101978.34;;;-1.42;100.00
25869;BME280;13688;53.154;18.136;2024-01-11T22:40:09;101979.23;;;-1.43;100.00
25869;BME280;13688;53.154;18.136;2024-01-11T22:45:34;101986.27;;;-1.42;100.00
25869;BME280;13688;53.154;18.136;2024-01-11T22:50:58;101988.90;;;-1.42;100.00
25869;BME280;13688;53.154;18.136;2024-01-11T22:56:26;101992.45;;;-1.45;100.00
25869;BME280;13688;53.154;18.136;2024-01-11T23:01:50;102001.23;;;-1.44;100.00
25869;BME280;13688;53.154;18.136;2024-01-11T23:07:15;102006.45;;;-1.39;100.00
25869;BME280;13688;53.154;18.136;2024-01-11T23:12:40;102003.84;;;-1.41;100.00
25869;BME280;13688;53.154;18.136;2024-01-11T23:18:06;102005.55;;;-1.37;100.00
25869;BME280;13688;53.154;18.136;2024-01-11T23:23:30;102001.22;;;-1.46;100.00
25869;BME280;13688;53.154;18.136;2024-01-11T23:28:55;101995.98;;;-1.49;100.00
25869;BME280;13688;53.154;18.136;2024-01-11T23:34:21;102013.58;;;-1.51;100.00
25869;BME280;13688;53.154;18.136;2024-01-11T23:39:45;102015.36;;;-1.53;100.00
25869;BME280;13688;53.154;18.136;2024-01-11T23:45:10;102014.52;;;-1.59;100.00
25869;BME280;13688;53.154;18.136;2024-01-11T23:50:34;102008.41;;;-1.66;100.00
25869;BME280;13688;53.154;18.136;2024-01-11T23:55:59;102010.23;;;-1.72;100.00
